| Date | Time | Temp. (oF) | Dew Point (oF) | Rel. Hum. (%) | Press. (in.) | Wind Dir. | Wind Speed (mph) | Hourly Rainfall (in.) |
|
|---|---|---|---|---|---|---|---|---|---|
| 1 | 09/26 | 00:00 | 71 | 70 | 99 | 30.08 | E | 0 | 0.00 |
| 2 | 09/25 | 23:00 | 71 | 71 | 100 | 30.10 | WNW | 2 | 0.00 |
| 3 | 09/25 | 22:00 | 72 | 71 | 99 | 30.09 | SSE | 1 | 0.00 |
| 4 | 09/25 | 21:00 | 72 | 71 | 99 | 30.08 | S | 1 | 0.00 |
| 5 | 09/25 | 20:00 | 72 | 71 | 98 | 30.09 | E | 0 | 0.00 |
| 6 | 09/25 | 19:00 | 73 | 72 | 97 | 30.11 | SSE | 1 | 0.00 |
| 7 | 09/25 | 18:00 | 74 | 73 | 97 | 30.12 | S | 4 | 0.01 |
| 8 | 09/25 | 17:00 | 73 | 71 | 96 | 30.13 | S | 5 | 0.02 |
| 9 | 09/25 | 16:00 | 77 | 74 | 93 | 30.13 | SSE | 5 | 0.00 |
| 10 | 09/25 | 15:00 | 75 | 75 | 100 | 30.14 | S | 6 | 0.04 |
| 11 | 09/25 | 14:00 | 69 | 68 | 100 | 30.17 | SSE | 2 | 0.20 |
| 12 | 09/25 | 13:00 | 67 | 67 | 100 | 30.19 | NE | 3 | 0.22 |
| 13 | 09/25 | 12:00 | 67 | 66 | 99 | 30.21 | N | 2 | 0.01 |
| 14 | 09/25 | 11:00 | 66 | 66 | 100 | 30.23 | ENE | 4 | 0.04 |
| 15 | 09/25 | 10:00 | 66 | 66 | 100 | 30.25 | NE | 5 | 0.08 |
| 16 | 09/25 | 09:00 | 64 | 63 | 100 | 30.26 | N | 3 | 0.08 |
| 17 | 09/25 | 08:00 | 64 | 63 | 100 | 30.26 | E | 1 | 0.01 |
| 18 | 09/25 | 07:00 | 64 | 63 | 100 | 30.26 | E | 4 | 0.05 |
| 19 | 09/25 | 06:00 | 63 | 62 | 99 | 30.26 | NE | 4 | 0.04 |
| 20 | 09/25 | 05:00 | 62 | 61 | 99 | 30.26 | E | 2 | 0.03 |
| 21 | 09/25 | 04:00 | 61 | 60 | 99 | 30.28 | NE | 4 | 0.00 |
| 22 | 09/25 | 03:00 | 60 | 59 | 98 | 30.30 | ENE | 14 | 0.00 |
| 23 | 09/25 | 02:00 | 60 | 59 | 97 | 30.33 | E | 4 | 0.01 |
| 24 | 09/25 | 01:00 | 60 | 58 | 96 | 30.35 | E | 4 | 0.01 |